sensor_id;sensor_type;location;lat;lon;timestamp;temperature;humidity
5940;DHT22;2995;-31.998;115.906;2024-02-04T00:02:20;27.80;99.90
5940;DHT22;2995;-31.998;115.906;2024-02-04T00:04:53;27.20;99.90
5940;DHT22;2995;-31.998;115.906;2024-02-04T00:07:26;27.10;99.90
5940;DHT22;2995;-31.998;115.906;2024-02-04T00:09:57;27.80;99.90
5940;DHT22;2995;-31.998;115.906;2024-02-04T00:12:29;27.60;99.90
5940;DHT22;2995;-31.998;115.906;2024-02-04T00:15:00;27.40;99.90
5940;DHT22;2995;-31.998;115.906;2024-02-04T00:17:32;27.30;99.90
5940;DHT22;2995;-31.998;115.906;2024-02-04T00:20:05;28.40;99.90
5940;DHT22;2995;-31.998;115.906;2024-02-04T00:22:38;28.20;99.90
5940;DHT22;2995;-31.998;115.906;2024-02-04T00:25:10;28.20;99.90
5940;DHT22;2995;-31.998;115.906;2024-02-04T00:27:43;28.10;99.90
5940;DHT22;2995;-31.998;115.906;2024-02-04T00:30:14;28.90;99.90
5940;DHT22;2995;-31.998;115.906;2024-02-04T00:32:45;29.30;99.90
5940;DHT22;2995;-31.998;115.906;2024-02-04T00:35:16;28.50;99.90
5940;DHT22;2995;-31.998;115.906;2024-02-04T00:37:50;27.70;99.90
5940;DHT22;2995;-31.998;115.906;2024-02-04T00:40:21;26.20;99.90
5940;DHT22;2995;-31.998;115.906;2024-02-04T00:42:52;25.90;99.90
5940;DHT22;2995;-31.998;115.906;2024-02-04T00:45:23;25.60;99.90
5940;DHT22;2995;-31.998;115.906;2024-02-04T00:47:55;24.90;99.90
5940;DHT22;2995;-31.998;115.906;2024-02-04T00:50:26;24.80;99.90
5940;DHT22;2995;-31.998;115.906;2024-02-04T00:52:59;26.50;99.90
5940;DHT22;2995;-31.998;115.906;2024-02-04T00:55:30;27.70;99.90
5940;DHT22;2995;-31.998;115.906;2024-02-04T00:58:01;26.50;99.90
5940;DHT22;2995;-31.998;115.906;2024-02-04T01:00:33;25.60;99.90
5940;DHT22;2995;-31.998;115.906;2024-02-04T01:03:04;26.00;99.90
5940;DHT22;2995;-31.998;115.906;2024-02-04T01:05:36;26.60;99.90
5940;DHT22;2995;-31.998;115.906;2024-02-04T01:08:10;26.90;99.90
5940;DHT22;2995;-31.998;115.906;2024-02-04T01:10:41;28.10;99.90
5940;DHT22;2995;-31.998;115.906;2024-02-04T01:13:12;27.80;99.90
5940;DHT22;2995;-31.998;115.906;2024-02-04T01:15:44;25.90;99.90
5940;DHT22;2995;-31.998;115.906;2024-02-04T01:18:15;24.80;99.90
5940;DHT22;2995;-31.998;115.906;2024-02-04T01:20:46;24.30;99.90
5940;DHT22;2995;-31.998;115.906;2024-02-04T01:23:20;25.00;99.90
5940;DHT22;2995;-31.998;115.906;2024-02-04T01:25:51;26.40;99.90
5940;DHT22;2995;-31.998;115.906;2024-02-04T01:28:22;26.10;99.90
5940;DHT22;2995;-31.998;115.906;2024-02-04T01:30:53;25.70;99.90
5940;DHT22;2995;-31.998;115.906;2024-02-04T01:33:24;25.30;99.90
5940;DHT22;2995;-31.998;115.906;2024-02-04T01:35:56;24.40;99.90
5940;DHT22;2995;-31.998;115.906;2024-02-04T01:38:29;24.60;99.90
5940;DHT22;2995;-31.998;115.906;2024-02-04T01:41:00;24.30;99.90
5940;DHT22;2995;-31.998;115.906;2024-02-04T01:43:31;24.10;99.90
5940;DHT22;2995;-31.998;115.906;2024-02-04T01:46:02;23.90;99.90
5940;DHT22;2995;-31.998;115.906;2024-02-04T01:48:34;23.80;99.90
5940;DHT22;2995;-31.998;115.906;2024-02-04T01:51:06;23.60;99.90
5940;DHT22;2995;-31.998;115.906;2024-02-04T01:53:40;23.90;99.90
5940;DHT22;2995;-31.998;115.906;2024-02-04T01:56:14;24.00;99.90
5940;DHT22;2995;-31.998;115.906;2024-02-04T01:58:46;24.10;99.90
5940;DHT22;2995;-31.998;115.906;2024-02-04T02:01:19;24.10;99.90
5940;DHT22;2995;-31.998;115.906;2024-02-04T02:03:51;24.10;99.90
5940;DHT22;2995;-31.998;115.906;2024-02-04T02:06:22;24.10;99.90
5940;DHT22;2995;-31.998;115.906;2024-02-04T02:08:57;24.60;99.90
5940;DHT22;2995;-31.998;115.906;2024-02-04T02:11:35;25.10;99.90
5940;DHT22;2995;-31.998;115.906;2024-02-04T02:14:13;24.70;99.90
5940;DHT22;2995;-31.998;115.906;2024-02-04T02:16:46;24.80;99.90
5940;DHT22;2995;-31.998;115.906;2024-02-04T02:19:28;24.90;99.90
5940;DHT22;2995;-31.998;115.906;2024-02-04T02:22:06;24.90;99.90
5940;DHT22;2995;-31.998;115.906;2024-02-04T02:24:45;24.90;99.90
5940;DHT22;2995;-31.998;115.906;2024-02-04T02:27:17;25.00;99.90
5940;DHT22;2995;-31.998;115.906;2024-02-04T02:29:48;25.10;99.90
5940;DHT22;2995;-31.998;115.906;2024-02-04T02:32:20;25.20;99.90
5940;DHT22;2995;-31.998;115.906;2024-02-04T02:34:51;25.40;99.90
5940;DHT22;2995;-31.998;115.906;2024-02-04T02:37:29;25.60;99.50
5940;DHT22;2995;-31.998;115.906;2024-02-04T02:40:08;26.00;99.60
5940;DHT22;2995;-31.998;115.906;2024-02-04T02:42:43;25.70;98.70
5940;DHT22;2995;-31.998;115.906;2024-02-04T02:45:17;25.30;99.60
5940;DHT22;2995;-31.998;115.906;2024-02-04T02:47:51;25.60;98.60
5940;DHT22;2995;-31.998;115.906;2024-02-04T02:50:23;25.90;98.40
5940;DHT22;2995;-31.998;115.906;2024-02-04T02:52:54;25.80;98.20
5940;DHT22;2995;-31.998;115.906;2024-02-04T02:55:28;25.40;98.00
5940;DHT22;2995;-31.998;115.906;2024-02-04T02:57:59;25.30;98.00
5940;DHT22;2995;-31.998;115.906;2024-02-04T03:00:30;25.00;98.30
5940;DHT22;2995;-31.998;115.906;2024-02-04T03:03:01;25.30;98.70
5940;DHT22;2995;-31.998;115.906;2024-02-04T03:05:33;25.20;98.20
5940;DHT22;2995;-31.998;115.906;2024-02-04T03:08:04;25.40;98.20
5940;DHT22;2995;-31.998;115.906;2024-02-04T03:10:38;25.70;97.60
5940;DHT22;2995;-31.998;115.906;2024-02-04T03:13:09;25.90;97.80
5940;DHT22;2995;-31.998;115.906;2024-02-04T03:15:40;26.00;97.10
5940;DHT22;2995;-31.998;115.906;2024-02-04T03:18:12;25.80;96.70
5940;DHT22;2995;-31.998;115.906;2024-02-04T03:20:43;25.50;97.40
5940;DHT22;2995;-31.998;115.906;2024-02-04T03:23:15;25.50;97.70
5940;DHT22;2995;-31.998;115.906;2024-02-04T03:25:48;25.40;97.20
5940;DHT22;2995;-31.998;115.906;2024-02-04T03:28:19;25.50;97.50
5940;DHT22;2995;-31.998;115.906;2024-02-04T03:30:51;25.60;96.90
5940;DHT22;2995;-31.998;115.906;2024-02-04T03:33:22;25.90;97.10
5940;DHT22;2995;-31.998;115.906;2024-02-04T03:35:53;25.90;96.80
5940;DHT22;2995;-31.998;115.906;2024-02-04T03:38:24;26.10;96.90
5940;DHT22;2995;-31.998;115.906;2024-02-04T03:40:58;26.20;96.40
5940;DHT22;2995;-31.998;115.906;2024-02-04T03:43:29;25.80;96.30
5940;DHT22;2995;-31.998;115.906;2024-02-04T03:46:00;26.10;96.70
5940;DHT22;2995;-31.998;115.906;2024-02-04T03:48:31;26.40;96.60
5940;DHT22;2995;-31.998;115.906;2024-02-04T03:51:03;26.20;95.70
5940;DHT22;2995;-31.998;115.906;2024-02-04T03:53:35;26.20;96.30
5940;DHT22;2995;-31.998;115.906;2024-02-04T03:56:08;25.90;95.80
5940;DHT22;2995;-31.998;115.906;2024-02-04T03:58:39;25.90;94.80
5940;DHT22;2995;-31.998;115.906;2024-02-04T04:01:11;25.80;95.70
5940;DHT22;2995;-31.998;115.906;2024-02-04T04:03:43;26.00;96.20
5940;DHT22;2995;-31.998;115.906;2024-02-04T04:06:15;26.60;96.60
5940;DHT22;2995;-31.998;115.906;2024-02-04T04:08:46;27.00;96.60
5940;DHT22;2995;-31.998;115.906;2024-02-04T04:11:20;26.80;95.70
5940;DHT22;2995;-31.998;115.906;2024-02-04T04:13:51;26.50;95.40
5940;DHT22;2995;-31.998;115.906;2024-02-04T04:16:22;26.60;94.90
5940;DHT22;2995;-31.998;115.906;2024-02-04T04:18:54;26.50;95.40
5940;DHT22;2995;-31.998;115.906;2024-02-04T04:21:26;26.40;94.80
5940;DHT22;2995;-31.998;115.906;2024-02-04T04:23:57;26.30;95.00
5940;DHT22;2995;-31.998;115.906;2024-02-04T04:26:31;26.40;95.20
5940;DHT22;2995;-31.998;115.906;2024-02-04T04:29:02;26.20;94.80
5940;DHT22;2995;-31.998;115.906;2024-02-04T04:31:33;26.30;94.70
5940;DHT22;2995;-31.998;115.906;2024-02-04T04:34:05;26.20;94.20
5940;DHT22;2995;-31.998;115.906;2024-02-04T04:36:36;26.50;94.80
5940;DHT22;2995;-31.998;115.906;2024-02-04T04:39:07;26.80;94.90
5940;DHT22;2995;-31.998;115.906;2024-02-04T04:41:43;26.70;94.50
5940;DHT22;2995;-31.998;115.906;2024-02-04T04:44:14;26.90;94.40
5940;DHT22;2995;-31.998;115.906;2024-02-04T04:46:45;27.10;95.10
5940;DHT22;2995;-31.998;115.906;2024-02-04T04:49:17;27.40;94.30
5940;DHT22;2995;-31.998;115.906;2024-02-04T04:51:48;27.60;94.00
5940;DHT22;2995;-31.998;115.906;2024-02-04T04:54:19;27.40;93.40
5940;DHT22;2995;-31.998;115.906;2024-02-04T04:56:53;27.50;93.70
5940;DHT22;2995;-31.998;115.906;2024-02-04T04:59:24;27.40;93.40
5940;DHT22;2995;-31.998;115.906;2024-02-04T05:01:55;27.40;93.60
5940;DHT22;2995;-31.998;115.906;2024-02-04T05:04:26;27.80;93.40
5940;DHT22;2995;-31.998;115.906;2024-02-04T05:06:57;27.60;93.30
5940;DHT22;2995;-31.998;115.906;2024-02-04T05:09:29;27.50;93.10
5940;DHT22;2995;-31.998;115.906;2024-02-04T05:12:02;27.40;92.80
5940;DHT22;2995;-31.998;115.906;2024-02-04T05:14:33;27.00;92.60
5940;DHT22;2995;-31.998;115.906;2024-02-04T05:17:05;27.10;93.00
5940;DHT22;2995;-31.998;115.906;2024-02-04T05:19:37;27.60;98.10
5940;DHT22;2995;-31.998;115.906;2024-02-04T05:22:08;27.60;99.00
5940;DHT22;2995;-31.998;115.906;2024-02-04T05:24:40;27.30;99.20
5940;DHT22;2995;-31.998;115.906;2024-02-04T05:27:13;27.50;99.70
5940;DHT22;2995;-31.998;115.906;2024-02-04T05:29:45;27.40;99.90
5940;DHT22;2995;-31.998;115.906;2024-02-04T05:32:16;27.50;99.90
5940;DHT22;2995;-31.998;115.906;2024-02-04T05:34:48;27.70;99.90
5940;DHT22;2995;-31.998;115.906;2024-02-04T05:37:19;27.50;99.90
5940;DHT22;2995;-31.998;115.906;2024-02-04T05:39:50;27.30;99.90
5940;DHT22;2995;-31.998;115.906;2024-02-04T05:42:23;27.00;99.90
5940;DHT22;2995;-31.998;115.906;2024-02-04T05:44:55;27.00;99.90
5940;DHT22;2995;-31.998;115.906;2024-02-04T05:47:26;26.90;99.90
5940;DHT22;2995;-31.998;115.906;2024-02-04T05:49:57;26.90;99.90
5940;DHT22;2995;-31.998;115.906;2024-02-04T05:52:28;26.90;99.90
5940;DHT22;2995;-31.998;115.906;2024-02-04T05:55:00;26.70;99.90
5940;DHT22;2995;-31.998;115.906;2024-02-04T05:57:33;26.90;99.90
5940;DHT22;2995;-31.998;115.906;2024-02-04T06:00:05;26.70;99.90
5940;DHT22;2995;-31.998;115.906;2024-02-04T06:02:36;26.70;99.90
5940;DHT22;2995;-31.998;115.906;2024-02-04T06:05:08;26.90;99.90
5940;DHT22;2995;-31.998;115.906;2024-02-04T06:07:39;26.90;99.90
5940;DHT22;2995;-31.998;115.906;2024-02-04T06:10:11;26.90;99.90
5940;DHT22;2995;-31.998;115.906;2024-02-04T06:12:44;26.70;99.90
5940;DHT22;2995;-31.998;115.906;2024-02-04T06:15:16;26.70;99.90
5940;DHT22;2995;-31.998;115.906;2024-02-04T06:17:49;26.40;99.90
5940;DHT22;2995;-31.998;115.906;2024-02-04T06:20:20;26.60;99.90
5940;DHT22;2995;-31.998;115.906;2024-02-04T06:22:51;26.80;99.90
5940;DHT22;2995;-31.998;115.906;2024-02-04T06:25:22;26.90;99.90
5940;DHT22;2995;-31.998;115.906;2024-02-04T06:27:56;26.70;99.90
5940;DHT22;2995;-31.998;115.906;2024-02-04T06:30:27;26.70;99.90
5940;DHT22;2995;-31.998;115.906;2024-02-04T06:32:58;26.70;99.90
5940;DHT22;2995;-31.998;115.906;2024-02-04T06:35:31;26.80;99.90
5940;DHT22;2995;-31.998;115.906;2024-02-04T06:38:02;26.40;99.90
5940;DHT22;2995;-31.998;115.906;2024-02-04T06:40:33;26.40;99.90
5940;DHT22;2995;-31.998;115.906;2024-02-04T06:43:07;26.10;99.90
5940;DHT22;2995;-31.998;115.906;2024-02-04T06:45:38;26.40;99.90
5940;DHT22;2995;-31.998;115.906;2024-02-04T06:48:09;26.40;99.90
5940;DHT22;2995;-31.998;115.906;2024-02-04T06:50:40;26.40;99.90
5940;DHT22;2995;-31.998;115.906;2024-02-04T06:53:13;26.50;99.90
5940;DHT22;2995;-31.998;115.906;2024-02-04T06:55:44;26.10;99.90
5940;DHT22;2995;-31.998;115.906;2024-02-04T06:58:18;25.90;99.90
5940;DHT22;2995;-31.998;115.906;2024-02-04T07:00:49;26.20;99.90
5940;DHT22;2995;-31.998;115.906;2024-02-04T07:03:20;25.90;99.90
5940;DHT22;2995;-31.998;115.906;2024-02-04T07:05:52;26.00;99.90
5940;DHT22;2995;-31.998;115.906;2024-02-04T07:08:23;25.80;99.90
5940;DHT22;2995;-31.998;115.906;2024-02-04T07:10:54;25.90;99.90
5940;DHT22;2995;-31.998;115.906;2024-02-04T07:13:27;25.90;99.90
5940;DHT22;2995;-31.998;115.906;2024-02-04T07:15:59;26.10;99.90
5940;DHT22;2995;-31.998;115.906;2024-02-04T07:18:30;25.90;99.90
5940;DHT22;2995;-31.998;115.906;2024-02-04T07:21:01;25.70;99.90
5940;DHT22;2995;-31.998;115.906;2024-02-04T07:23:32;25.80;99.90
5940;DHT22;2995;-31.998;115.906;2024-02-04T07:26:04;25.80;99.90
5940;DHT22;2995;-31.998;115.906;2024-02-04T07:28:38;25.80;99.90
5940;DHT22;2995;-31.998;115.906;2024-02-04T07:31:10;25.70;99.90
5940;DHT22;2995;-31.998;115.906;2024-02-04T07:33:42;25.40;99.90
5940;DHT22;2995;-31.998;115.906;2024-02-04T07:36:13;25.40;99.90
5940;DHT22;2995;-31.998;115.906;2024-02-04T07:38:44;25.50;99.90
5940;DHT22;2995;-31.998;115.906;2024-02-04T07:41:16;25.30;99.90
5940;DHT22;2995;-31.998;115.906;2024-02-04T07:43:49;25.40;99.90
5940;DHT22;2995;-31.998;115.906;2024-02-04T07:46:21;25.30;99.90
5940;DHT22;2995;-31.998;115.906;2024-02-04T07:48:52;25.30;99.90
5940;DHT22;2995;-31.998;115.906;2024-02-04T07:51:23;25.10;99.90
5940;DHT22;2995;-31.998;115.906;2024-02-04T07:53:54;24.80;99.90
5940;DHT22;2995;-31.998;115.906;2024-02-04T07:56:25;24.80;99.90
5940;DHT22;2995;-31.998;115.906;2024-02-04T07:58:59;25.00;99.90
5940;DHT22;2995;-31.998;115.906;2024-02-04T08:01:31;25.00;99.90
5940;DHT22;2995;-31.998;115.906;2024-02-04T08:04:02;25.00;99.90
5940;DHT22;2995;-31.998;115.906;2024-02-04T08:06:36;25.20;99.90
5940;DHT22;2995;-31.998;115.906;2024-02-04T08:09:07;25.10;99.90
5940;DHT22;2995;-31.998;115.906;2024-02-04T08:11:39;25.20;99.90
5940;DHT22;2995;-31.998;115.906;2024-02-04T08:14:13;25.00;99.90
5940;DHT22;2995;-31.998;115.906;2024-02-04T08:16:45;25.00;99.90
5940;DHT22;2995;-31.998;115.906;2024-02-04T08:19:16;24.90;99.90
5940;DHT22;2995;-31.998;115.906;2024-02-04T08:21:48;24.80;99.90
5940;DHT22;2995;-31.998;115.906;2024-02-04T08:24:19;24.80;99.90
5940;DHT22;2995;-31.998;115.906;2024-02-04T08:26:51;25.00;99.90
5940;DHT22;2995;-31.998;115.906;2024-02-04T08:29:24;24.80;99.90
5940;DHT22;2995;-31.998;115.906;2024-02-04T08:31:55;24.70;99.90
5940;DHT22;2995;-31.998;115.906;2024-02-04T08:34:26;24.80;99.90
5940;DHT22;2995;-31.998;115.906;2024-02-04T08:36:57;25.00;99.90
5940;DHT22;2995;-31.998;115.906;2024-02-04T08:39:28;24.80;99.90
5940;DHT22;2995;-31.998;115.906;2024-02-04T08:42:00;24.60;99.90
5940;DHT22;2995;-31.998;115.906;2024-02-04T08:44:33;24.60;99.90
5940;DHT22;2995;-31.998;115.906;2024-02-04T08:47:04;24.70;99.90
5940;DHT22;2995;-31.998;115.906;2024-02-04T08:49:38;24.30;99.90
5940;DHT22;2995;-31.998;115.906;2024-02-04T08:52:09;24.30;99.90
5940;DHT22;2995;-31.998;115.906;2024-02-04T08:54:40;24.60;99.90
5940;DHT22;2995;-31.998;115.906;2024-02-04T08:57:11;24.70;99.90
5940;DHT22;2995;-31.998;115.906;2024-02-04T08:59:45;24.60;99.90
5940;DHT22;2995;-31.998;115.906;2024-02-04T09:02:16;24.40;99.90
5940;DHT22;2995;-31.998;115.906;2024-02-04T09:04:47;24.30;99.90
5940;DHT22;2995;-31.998;115.906;2024-02-04T09:07:19;24.40;99.90
5940;DHT22;2995;-31.998;115.906;2024-02-04T09:09:50;24.30;99.90
5940;DHT22;2995;-31.998;115.906;2024-02-04T09:12:22;24.20;99.90
5940;DHT22;2995;-31.998;115.906;2024-02-04T09:14:55;24.20;99.90
5940;DHT22;2995;-31.998;115.906;2024-02-04T09:17:26;24.10;99.90
5940;DHT22;2995;-31.998;115.906;2024-02-04T09:19:57;24.30;99.90
5940;DHT22;2995;-31.998;115.906;2024-02-04T09:22:29;24.30;99.90
5940;DHT22;2995;-31.998;115.906;2024-02-04T09:25:00;24.20;99.90
5940;DHT22;2995;-31.998;115.906;2024-02-04T09:27:31;24.10;99.90
5940;DHT22;2995;-31.998;115.906;2024-02-04T09:30:05;24.10;99.90
5940;DHT22;2995;-31.998;115.906;2024-02-04T09:32:36;24.10;99.90
5940;DHT22;2995;-31.998;115.906;2024-02-04T09:35:11;24.00;99.90
5940;DHT22;2995;-31.998;115.906;2024-02-04T09:37:42;24.00;99.90
5940;DHT22;2995;-31.998;115.906;2024-02-04T09:40:14;24.10;99.90
5940;DHT22;2995;-31.998;115.906;2024-02-04T09:42:45;24.00;99.90
5940;DHT22;2995;-31.998;115.906;2024-02-04T09:45:18;24.00;99.90
5940;DHT22;2995;-31.998;115.906;2024-02-04T09:47:51;24.10;99.90
5940;DHT22;2995;-31.998;115.906;2024-02-04T09:50:23;24.10;99.90
5940;DHT22;2995;-31.998;115.906;2024-02-04T09:52:58;23.80;99.90
5940;DHT22;2995;-31.998;115.906;2024-02-04T09:55:30;23.60;99.90
5940;DHT22;2995;-31.998;115.906;2024-02-04T09:58:03;23.50;99.90
5940;DHT22;2995;-31.998;115.906;2024-02-04T10:00:36;23.60;99.90
5940;DHT22;2995;-31.998;115.906;2024-02-04T10:03:12;23.60;99.90
5940;DHT22;2995;-31.998;115.906;2024-02-04T10:05:43;23.60;99.90
5940;DHT22;2995;-31.998;115.906;2024-02-04T10:08:15;23.40;99.90
5940;DHT22;2995;-31.998;115.906;2024-02-04T10:10:47;23.40;99.90
5940;DHT22;2995;-31.998;115.906;2024-02-04T10:13:18;23.50;99.90
5940;DHT22;2995;-31.998;115.906;2024-02-04T10:15:52;23.30;99.90
5940;DHT22;2995;-31.998;115.906;2024-02-04T10:18:23;23.20;99.90
5940;DHT22;2995;-31.998;115.906;2024-02-04T10:20:55;23.10;99.90
5940;DHT22;2995;-31.998;115.906;2024-02-04T10:23:26;23.20;99.90
5940;DHT22;2995;-31.998;115.906;2024-02-04T10:25:59;23.20;99.90
5940;DHT22;2995;-31.998;115.906;2024-02-04T10:28:32;22.90;99.90
5940;DHT22;2995;-31.998;115.906;2024-02-04T10:31:05;22.80;99.90
5940;DHT22;2995;-31.998;115.906;2024-02-04T10:33:36;22.80;99.90
5940;DHT22;2995;-31.998;115.906;2024-02-04T10:36:08;22.80;99.90
5940;DHT22;2995;-31.998;115.906;2024-02-04T10:38:39;22.80;99.90
5940;DHT22;2995;-31.998;115.906;2024-02-04T10:41:14;22.70;99.90
5940;DHT22;2995;-31.998;115.906;2024-02-04T10:43:45;22.60;99.90
5940;DHT22;2995;-31.998;115.906;2024-02-04T10:46:19;22.50;99.90
5940;DHT22;2995;-31.998;115.906;2024-02-04T10:48:54;22.30;99.90
5940;DHT22;2995;-31.998;115.906;2024-02-04T10:51:26;22.20;99.90
5940;DHT22;2995;-31.998;115.906;2024-02-04T10:54:00;22.40;99.90
5940;DHT22;2995;-31.998;115.906;2024-02-04T10:56:34;22.40;99.90
5940;DHT22;2995;-31.998;115.906;2024-02-04T10:59:07;22.30;99.90
5940;DHT22;2995;-31.998;115.906;2024-02-04T11:01:42;22.20;99.90
5940;DHT22;2995;-31.998;115.906;2024-02-04T11:04:16;22.10;99.90
5940;DHT22;2995;-31.998;115.906;2024-02-04T11:06:48;22.10;99.90
5940;DHT22;2995;-31.998;115.906;2024-02-04T11:09:20;22.00;99.90
5940;DHT22;2995;-31.998;115.906;2024-02-04T11:11:52;21.90;99.90
5940;DHT22;2995;-31.998;115.906;2024-02-04T11:14:24;22.00;99.90
5940;DHT22;2995;-31.998;115.906;2024-02-04T11:17:28;22.00;99.90
5940;DHT22;2995;-31.998;115.906;2024-02-04T11:20:16;21.80;99.90
5940;DHT22;2995;-31.998;115.906;2024-02-04T11:23:14;21.80;99.90
5940;DHT22;2995;-31.998;115.906;2024-02-04T11:25:50;21.80;99.90
5940;DHT22;2995;-31.998;115.906;2024-02-04T11:28:24;21.80;99.90
5940;DHT22;2995;-31.998;115.906;2024-02-04T11:30:56;21.70;99.90
5940;DHT22;2995;-31.998;115.906;2024-02-04T11:33:29;21.70;99.90
5940;DHT22;2995;-31.998;115.906;2024-02-04T11:36:03;21.70;99.90
5940;DHT22;2995;-31.998;115.906;2024-02-04T11:38:37;21.60;99.90
5940;DHT22;2995;-31.998;115.906;2024-02-04T11:41:08;21.70;99.90
5940;DHT22;2995;-31.998;115.906;2024-02-04T11:43:39;21.70;99.90
5940;DHT22;2995;-31.998;115.906;2024-02-04T11:46:18;21.70;99.90
5940;DHT22;2995;-31.998;115.906;2024-02-04T11:48:55;21.60;99.90
5940;DHT22;2995;-31.998;115.906;2024-02-04T11:51:26;21.50;99.90
5940;DHT22;2995;-31.998;115.906;2024-02-04T11:53:58;21.40;99.90
5940;DHT22;2995;-31.998;115.906;2024-02-04T11:56:32;21.40;99.90
5940;DHT22;2995;-31.998;115.906;2024-02-04T11:59:04;21.40;99.90
5940;DHT22;2995;-31.998;115.906;2024-02-04T12:01:35;21.30;99.90
5940;DHT22;2995;-31.998;115.906;2024-02-04T12:04:15;21.30;99.90
5940;DHT22;2995;-31.998;115.906;2024-02-04T12:06:47;21.20;99.90
5940;DHT22;2995;-31.998;115.906;2024-02-04T12:09:18;21.10;99.90
5940;DHT22;2995;-31.998;115.906;2024-02-04T12:11:50;21.10;99.90
5940;DHT22;2995;-31.998;115.906;2024-02-04T12:14:22;21.10;99.90
5940;DHT22;2995;-31.998;115.906;2024-02-04T12:16:54;21.10;99.90
5940;DHT22;2995;-31.998;115.906;2024-02-04T12:19:27;21.10;99.90
5940;DHT22;2995;-31.998;115.906;2024-02-04T12:21:59;21.00;99.90
5940;DHT22;2995;-31.998;115.906;2024-02-04T12:24:36;21.00;99.90
5940;DHT22;2995;-31.998;115.906;2024-02-04T12:27:07;20.80;99.90
5940;DHT22;2995;-31.998;115.906;2024-02-04T12:29:39;20.90;99.90
5940;DHT22;2995;-31.998;115.906;2024-02-04T12:32:13;20.90;99.90
5940;DHT22;2995;-31.998;115.906;2024-02-04T12:34:51;20.80;99.90
5940;DHT22;2995;-31.998;115.906;2024-02-04T12:37:24;20.80;99.90
5940;DHT22;2995;-31.998;115.906;2024-02-04T12:39:57;20.70;99.90
5940;DHT22;2995;-31.998;115.906;2024-02-04T12:42:31;20.70;99.90
5940;DHT22;2995;-31.998;115.906;2024-02-04T12:45:02;20.70;99.90
5940;DHT22;2995;-31.998;115.906;2024-02-04T12:47:33;20.60;99.90
5940;DHT22;2995;-31.998;115.906;2024-02-04T12:50:07;20.50;99.90
5940;DHT22;2995;-31.998;115.906;2024-02-04T12:52:42;20.50;99.90
5940;DHT22;2995;-31.998;115.906;2024-02-04T12:55:22;20.50;99.90
5940;DHT22;2995;-31.998;115.906;2024-02-04T12:58:03;20.50;99.90
5940;DHT22;2995;-31.998;115.906;2024-02-04T13:00:35;20.40;99.90
5940;DHT22;2995;-31.998;115.906;2024-02-04T13:03:07;20.40;99.90
5940;DHT22;2995;-31.998;115.906;2024-02-04T13:05:40;20.40;99.90
5940;DHT22;2995;-31.998;115.906;2024-02-04T13:08:11;20.40;99.90
5940;DHT22;2995;-31.998;115.906;2024-02-04T13:10:43;20.40;99.90
5940;DHT22;2995;-31.998;115.906;2024-02-04T13:13:14;20.30;99.90
5940;DHT22;2995;-31.998;115.906;2024-02-04T13:15:46;20.40;99.90
5940;DHT22;2995;-31.998;115.906;2024-02-04T13:18:17;20.40;99.90
5940;DHT22;2995;-31.998;115.906;2024-02-04T13:20:50;20.40;99.90
5940;DHT22;2995;-31.998;115.906;2024-02-04T13:23:22;20.20;99.90
5940;DHT22;2995;-31.998;115.906;2024-02-04T13:25:53;20.30;99.90
5940;DHT22;2995;-31.998;115.906;2024-02-04T13:28:24;20.20;99.90
5940;DHT22;2995;-31.998;115.906;2024-02-04T13:30:56;20.10;99.90
5940;DHT22;2995;-31.998;115.906;2024-02-04T13:33:27;20.20;99.90
5940;DHT22;2995;-31.998;115.906;2024-02-04T13:36:04;20.10;99.90
5940;DHT22;2995;-31.998;115.906;2024-02-04T13:38:35;20.20;99.90
5940;DHT22;2995;-31.998;115.906;2024-02-04T13:41:07;20.10;99.90
5940;DHT22;2995;-31.998;115.906;2024-02-04T13:43:38;20.10;99.90
5940;DHT22;2995;-31.998;115.906;2024-02-04T13:46:09;20.00;99.90
5940;DHT22;2995;-31.998;115.906;2024-02-04T13:48:40;20.00;99.90
5940;DHT22;2995;-31.998;115.906;2024-02-04T13:51:13;20.00;99.90
5940;DHT22;2995;-31.998;115.906;2024-02-04T13:53:45;20.10;99.90
5940;DHT22;2995;-31.998;115.906;2024-02-04T13:56:16;19.90;99.90
5940;DHT22;2995;-31.998;115.906;2024-02-04T13:58:47;19.90;99.90
5940;DHT22;2995;-31.998;115.906;2024-02-04T14:01:19;19.90;99.90
5940;DHT22;2995;-31.998;115.906;2024-02-04T14:03:51;19.80;99.90
5940;DHT22;2995;-31.998;115.906;2024-02-04T14:06:24;19.90;99.90
5940;DHT22;2995;-31.998;115.906;2024-02-04T14:08:55;19.90;99.90
5940;DHT22;2995;-31.998;115.906;2024-02-04T14:11:27;19.90;99.90
5940;DHT22;2995;-31.998;115.906;2024-02-04T14:13:58;19.70;99.90
5940;DHT22;2995;-31.998;115.906;2024-02-04T14:16:29;19.60;99.90
5940;DHT22;2995;-31.998;115.906;2024-02-04T14:19:00;19.60;99.90
5940;DHT22;2995;-31.998;115.906;2024-02-04T14:21:34;19.60;99.90
5940;DHT22;2995;-31.998;115.906;2024-02-04T14:24:05;19.70;99.90
5940;DHT22;2995;-31.998;115.906;2024-02-04T14:26:38;19.70;99.90
5940;DHT22;2995;-31.998;115.906;2024-02-04T14:29:11;19.50;99.90
5940;DHT22;2995;-31.998;115.906;2024-02-04T14:31:42;19.50;99.90
5940;DHT22;2995;-31.998;115.906;2024-02-04T14:34:13;19.60;99.90
5940;DHT22;2995;-31.998;115.906;2024-02-04T14:36:46;19.40;99.90
5940;DHT22;2995;-31.998;115.906;2024-02-04T14:39:18;19.40;99.90
5940;DHT22;2995;-31.998;115.906;2024-02-04T14:41:49;19.30;99.90
5940;DHT22;2995;-31.998;115.906;2024-02-04T14:44:22;19.40;99.90
5940;DHT22;2995;-31.998;115.906;2024-02-04T14:46:53;19.40;99.90
5940;DHT22;2995;-31.998;115.906;2024-02-04T14:49:25;19.30;99.90
5940;DHT22;2995;-31.998;115.906;2024-02-04T14:51:59;19.30;99.90
5940;DHT22;2995;-31.998;115.906;2024-02-04T14:54:30;19.20;99.90
5940;DHT22;2995;-31.998;115.906;2024-02-04T14:57:01;19.20;99.90
5940;DHT22;2995;-31.998;115.906;2024-02-04T14:59:32;19.20;99.90
5940;DHT22;2995;-31.998;115.906;2024-02-04T15:02:05;19.10;99.90
5940;DHT22;2995;-31.998;115.906;2024-02-04T15:04:37;19.20;99.90
5940;DHT22;2995;-31.998;115.906;2024-02-04T15:07:10;19.20;99.90
5940;DHT22;2995;-31.998;115.906;2024-02-04T15:09:42;19.10;99.90
5940;DHT22;2995;-31.998;115.906;2024-02-04T15:12:14;19.10;99.90
5940;DHT22;2995;-31.998;115.906;2024-02-04T15:14:47;19.00;99.90
5940;DHT22;2995;-31.998;115.906;2024-02-04T15:17:18;19.10;99.90
5940;DHT22;2995;-31.998;115.906;2024-02-04T15:19:50;19.00;99.90
5940;DHT22;2995;-31.998;115.906;2024-02-04T15:22:24;19.20;99.90
5940;DHT22;2995;-31.998;115.906;2024-02-04T15:24:55;19.20;99.90
5940;DHT22;2995;-31.998;115.906;2024-02-04T15:27:28;19.00;99.90
5940;DHT22;2995;-31.998;115.906;2024-02-04T15:29:59;19.00;99.90
5940;DHT22;2995;-31.998;115.906;2024-02-04T15:32:31;18.90;99.90
5940;DHT22;2995;-31.998;115.906;2024-02-04T15:35:03;18.90;99.90
5940;DHT22;2995;-31.998;115.906;2024-02-04T15:37:37;18.90;99.90
5940;DHT22;2995;-31.998;115.906;2024-02-04T15:40:09;18.90;99.90
5940;DHT22;2995;-31.998;115.906;2024-02-04T15:42:41;18.80;99.90
5940;DHT22;2995;-31.998;115.906;2024-02-04T15:45:12;18.90;99.90
5940;DHT22;2995;-31.998;115.906;2024-02-04T15:47:50;18.90;99.90